Time;durP1;ratioP1;P1;durP2;ratioP2;P2;SDS_P1;SDS_P2;PMS_P1;PMS_P2;Temp;Humidity;BMP_temperature;BMP_pressure;BME280_temperature;BME280_humidity;BME280_pressure;Samples;Min_cycle;Max_cycle;Signal;HPM_P1;HPM_P2
2021/01/28 00:00:21;;;;;;;3.30;2.85;;;3.20;76.80;;;;;;5031019;28;20214;-74
2021/01/28 00:02:49;;;;;;;4.70;3.40;;;3.30;67.60;;;;;;5033604;28;20237;-74
2021/01/28 00:05:18;;;;;;;2.53;2.30;;;3.20;59.70;;;;;;5029371;28;20222;-76
2021/01/28 00:07:45;;;;;;;3.50;3.17;;;3.10;69.00;;;;;;5031447;28;20240;-74
2021/01/28 00:10:14;;;;;;;4.07;3.67;;;3.30;68.80;;;;;;5030173;28;20242;-75
2021/01/28 00:12:43;;;;;;;2.63;2.42;;;3.20;62.30;;;;;;5030671;28;20233;-74
2021/01/28 00:15:16;;;;;;;4.10;2.78;;;3.40;59.70;;;;;;5032565;28;20204;-74
2021/01/28 00:17:43;;;;;;;3.35;2.78;;;3.60;40.90;;;;;;5029799;28;21073;-74
2021/01/28 00:20:14;;;;;;;3.20;2.90;;;3.40;33.30;;;;;;5029053;28;20804;-74
2021/01/28 00:22:42;;;;;;;2.90;2.42;;;3.30;45.10;;;;;;5028064;28;20801;-75
2021/01/28 00:25:10;;;;;;;2.75;2.00;;;3.20;45.20;;;;;;5034621;28;20219;-74
2021/01/28 00:27:37;;;;;;;2.97;2.63;;;3.20;61.00;;;;;;5029927;28;20243;-74
2021/01/28 00:30:09;;;;;;;3.75;2.95;;;3.30;55.80;;;;;;5028767;28;20255;-76
2021/01/28 00:32:37;;;;;;;2.60;2.38;;;3.20;49.80;;;;;;5031914;28;20320;-75
2021/01/28 00:35:06;;;;;;;4.32;3.03;;;3.20;57.20;;;;;;5036012;28;20214;-74
2021/01/28 00:37:34;;;;;;;3.50;3.20;;;3.10;69.10;;;;;;5037137;28;20475;-74
2021/01/28 00:40:02;;;;;;;4.57;3.38;;;3.10;71.80;;;;;;5042930;28;20217;-75
2021/01/28 00:42:29;;;;;;;4.20;2.97;;;3.20;70.50;;;;;;5041855;28;20200;-74
2021/01/28 00:44:57;;;;;;;3.05;2.63;;;3.30;62.30;;;;;;5031675;28;20208;-75
2021/01/28 00:47:25;;;;;;;4.15;3.28;;;3.30;57.50;;;;;;5036938;28;20266;-76
2021/01/28 00:49:53;;;;;;;3.20;2.83;;;3.20;56.40;;;;;;5037498;28;20318;-76
2021/01/28 00:52:20;;;;;;;3.55;2.60;;;3.10;60.10;;;;;;5041269;28;20217;-76
2021/01/28 00:54:48;;;;;;;4.07;2.92;;;3.20;66.00;;;;;;5043025;28;20225;-75
2021/01/28 00:57:16;;;;;;;2.80;2.38;;;3.20;59.00;;;;;;5045331;28;20651;-75
2021/01/28 00:59:43;;;;;;;3.50;3.20;;;3.10;67.00;;;;;;5033770;28;20220;-76
2021/01/28 01:02:10;;;;;;;3.28;2.40;;;3.00;83.40;;;;;;5039898;28;20210;-75
2021/01/28 01:04:39;;;;;;;3.05;2.67;;;3.20;82.70;;;;;;5040191;28;20677;-77
2021/01/28 01:07:06;;;;;;;4.30;2.92;;;3.30;62.90;;;;;;5043223;28;20293;-76
2021/01/28 01:09:34;;;;;;;2.80;2.60;;;3.20;58.90;;;;;;5043758;28;20210;-76
2021/01/28 01:12:02;;;;;;;3.53;2.80;;;3.20;68.60;;;;;;5044352;28;20235;-76
2021/01/28 01:14:29;;;;;;;5.30;3.90;;;3.20;65.60;;;;;;5040825;28;20240;-77
2021/01/28 01:16:56;;;;;;;3.92;3.63;;;3.20;55.30;;;;;;5037370;28;20224;-75
2021/01/28 01:19:24;;;;;;;4.63;4.20;;;3.10;66.00;;;;;;5039839;28;20321;-75
2021/01/28 01:21:52;;;;;;;3.70;3.17;;;3.20;62.30;;;;;;5045079;28;20642;-75
2021/01/28 01:24:19;;;;;;;3.40;3.10;;;3.20;60.40;;;;;;5038532;28;20223;-74
2021/01/28 01:26:46;;;;;;;4.05;3.40;;;3.20;57.20;;;;;;5033815;28;20316;-75
2021/01/28 01:29:14;;;;;;;4.15;3.10;;;3.30;60.70;;;;;;5038604;28;20726;-76
2021/01/28 01:31:41;;;;;;;3.53;3.10;;;3.20;56.10;;;;;;5041419;28;20486;-76
2021/01/28 01:34:08;;;;;;;3.83;3.47;;;3.10;66.70;;;;;;5045054;28;20847;-75
2021/01/28 01:36:37;;;;;;;4.07;3.30;;;3.20;67.80;;;;;;5047784;28;20242;-75
2021/01/28 01:39:05;;;;;;;4.20;2.90;;;3.20;64.30;;;;;;5044044;28;20209;-74
2021/01/28 01:41:36;;;;;;;2.80;2.58;;;3.40;58.80;;;;;;5046996;28;20205;-75
2021/01/28 01:44:04;;;;;;;3.78;2.58;;;3.30;55.10;;;;;;5042161;28;20220;-75
2021/01/28 01:46:32;;;;;;;3.20;2.90;;;3.30;53.80;;;;;;5055030;28;20250;-74
2021/01/28 01:49:05;;;;;;;2.65;2.45;;;3.20;61.70;;;;;;5029097;28;20671;-75
2021/01/28 01:51:37;;;;;;;4.35;3.10;;;3.30;64.10;;;;;;5051368;28;20224;-75
2021/01/28 01:54:11;;;;;;;2.80;2.60;;;3.40;59.60;;;;;;5039246;28;20206;-73
2021/01/28 01:56:41;;;;;;;2.88;2.25;;;3.30;55.20;;;;;;5046390;28;20242;-75
2021/01/28 01:59:15;;;;;;;3.45;3.05;;;3.40;55.10;;;;;;5047527;28;20215;-75
2021/01/28 02:01:46;;;;;;;3.35;3.03;;;3.40;46.40;;;;;;5045142;28;20216;-75
2021/01/28 02:04:15;;;;;;;4.00;3.63;;;3.40;50.30;;;;;;5040426;28;20245;-75
2021/01/28 02:06:45;;;;;;;3.60;3.15;;;3.30;52.00;;;;;;5045903;28;20237;-75
2021/01/28 02:09:13;;;;;;;3.75;2.45;;;3.30;51.20;;;;;;5044347;28;21037;-74
2021/01/28 02:11:42;;;;;;;2.78;2.45;;;3.40;57.10;;;;;;5045807;28;20230;-75
2021/01/28 02:14:13;;;;;;;2.70;2.50;;;3.40;53.30;;;;;;5054592;28;20203;-75
2021/01/28 02:16:56;;;;;;;3.67;2.53;;;3.40;56.20;;;;;;5047083;28;20277;-75
2021/01/28 02:19:35;;;;;;;2.35;2.00;;;3.50;45.30;;;;;;5039384;28;20220;-75
2021/01/28 02:22:02;;;;;;;2.88;2.30;;;3.40;44.30;;;;;;5050000;28;20266;-75
2021/01/28 02:24:44;;;;;;;2.80;2.05;;;3.30;58.50;;;;;;5040447;28;20208;-75
2021/01/28 02:27:13;;;;;;;2.42;2.05;;;3.40;66.60;;;;;;5041818;28;20234;-74
2021/01/28 02:29:41;;;;;;;2.15;1.80;;;3.40;62.50;;;;;;5049051;28;20206;-75
2021/01/28 02:32:09;;;;;;;2.13;1.92;;;3.50;59.20;;;;;;5048997;28;20292;-75
2021/01/28 02:34:37;;;;;;;2.00;1.90;;;3.50;56.30;;;;;;5045757;28;20871;-75
2021/01/28 02:37:12;;;;;;;2.05;1.77;;;3.50;54.00;;;;;;5044868;28;20540;-74
2021/01/28 02:39:39;;;;;;;2.50;1.40;;;3.60;42.70;;;;;;5041280;28;20222;-75
2021/01/28 02:42:14;;;;;;;2.13;1.92;;;3.60;49.60;;;;;;5060221;28;20210;-75
2021/01/28 02:44:41;;;;;;;1.92;1.73;;;3.60;56.40;;;;;;5042020;28;20204;-75
2021/01/28 02:47:09;;;;;;;1.70;1.60;;;3.50;55.70;;;;;;5052305;28;20226;-75
2021/01/28 02:49:37;;;;;;;1.60;1.45;;;3.60;69.70;;;;;;5046888;28;20223;-75
2021/01/28 02:52:04;;;;;;;1.30;1.20;;;3.50;65.70;;;;;;5046247;28;20226;-75
2021/01/28 02:54:39;;;;;;;1.67;1.58;;;3.60;67.70;;;;;;5042474;28;20827;-75
2021/01/28 02:57:06;;;;;;;1.65;1.55;;;3.80;55.70;;;;;;5039410;28;20298;-75
2021/01/28 02:59:34;;;;;;;2.20;2.00;;;3.90;39.90;;;;;;5048160;28;20257;-75
2021/01/28 03:02:05;;;;;;;2.65;2.05;;;3.90;29.70;;;;;;5038276;28;20212;-75
2021/01/28 03:04:33;;;;;;;2.30;1.63;;;3.80;33.80;;;;;;5038913;28;20205;-75
2021/01/28 03:07:00;;;;;;;2.50;2.30;;;3.90;40.00;;;;;;5036814;28;20277;-75
2021/01/28 03:09:28;;;;;;;2.30;2.10;;;3.90;29.80;;;;;;5044174;28;20219;-75
2021/01/28 03:11:55;;;;;;;2.25;2.05;;;3.90;17.40;;;;;;5044593;28;20231;-74
2021/01/28 03:14:22;;;;;;;3.00;2.20;;;3.80;29.00;;;;;;5049129;28;20332;-75
2021/01/28 03:16:50;;;;;;;3.10;2.67;;;3.80;40.00;;;;;;5046819;28;20222;-75
2021/01/28 03:19:21;;;;;;;2.42;1.95;;;3.70;36.40;;;;;;5042292;28;20216;-75
2021/01/28 03:21:48;;;;;;;4.30;3.17;;;3.60;56.60;;;;;;5041528;28;20246;-75
2021/01/28 03:24:16;;;;;;;3.00;2.35;;;3.40;75.80;;;;;;5041084;28;20334;-75
2021/01/28 03:26:43;;;;;;;2.33;2.15;;;3.40;88.80;;;;;;5042670;28;20239;-74
2021/01/28 03:29:13;;;;;;;2.30;2.10;;;3.40;97.60;;;;;;5044234;28;20199;-74
2021/01/28 03:31:41;;;;;;;3.20;2.50;;;3.40;97.40;;;;;;5040331;28;20311;-74
2021/01/28 03:34:10;;;;;;;3.10;2.65;;;3.40;99.90;;;;;;5038139;28;20684;-74
2021/01/28 03:36:37;;;;;;;3.45;2.10;;;3.40;99.90;;;;;;5048667;28;20240;-74
2021/01/28 03:39:05;;;;;;;2.42;2.15;;;3.40;99.90;;;;;;5043363;28;22121;-73
2021/01/28 03:41:33;;;;;;;2.38;2.20;;;3.50;99.90;;;;;;5048509;28;20215;-74
2021/01/28 03:44:01;;;;;;;4.32;2.80;;;3.50;99.90;;;;;;5039721;28;20675;-74
2021/01/28 03:46:28;;;;;;;4.93;3.72;;;3.60;99.90;;;;;;5047915;28;20257;-74
2021/01/28 03:48:55;;;;;;;3.72;3.30;;;3.60;99.90;;;;;;5042969;28;20204;-73
2021/01/28 03:51:23;;;;;;;4.10;3.70;;;3.60;99.90;;;;;;5044674;28;20645;-74
2021/01/28 03:53:50;;;;;;;3.72;3.10;;;3.60;99.90;;;;;;5041708;28;20718;-74
2021/01/28 03:56:17;;;;;;;4.32;3.92;;;3.60;99.90;;;;;;5045148;28;20730;-74
2021/01/28 03:58:45;;;;;;;5.07;4.15;;;3.40;99.90;;;;;;5044044;28;20208;-74
2021/01/28 04:01:12;;;;;;;5.35;4.32;;;3.40;99.90;;;;;;5039215;28;20212;-74
2021/01/28 04:03:39;;;;;;;4.80;4.30;;;3.30;99.90;;;;;;5042419;28;20211;-74
2021/01/28 04:06:06;;;;;;;5.15;4.22;;;3.30;99.90;;;;;;5041159;28;20210;-73
2021/01/28 04:08:34;;;;;;;10.68;4.22;;;3.30;99.90;;;;;;5048895;28;20211;-74
2021/01/28 04:11:01;;;;;;;6.13;4.38;;;3.30;99.90;;;;;;5030435;28;20807;-74
2021/01/28 04:13:28;;;;;;;6.63;4.70;;;3.40;99.90;;;;;;5043480;28;20198;-74
2021/01/28 04:15:56;;;;;;;6.60;4.72;;;3.40;99.90;;;;;;5043256;28;20225;-74
2021/01/28 04:18:23;;;;;;;5.90;4.55;;;3.30;99.90;;;;;;5045867;28;20246;-74
2021/01/28 04:20:50;;;;;;;5.85;4.28;;;3.40;98.30;;;;;;5049219;28;20694;-74
2021/01/28 04:23:18;;;;;;;7.18;5.20;;;3.40;94.70;;;;;;5040096;28;20216;-73
2021/01/28 04:25:46;;;;;;;7.28;4.32;;;3.30;96.90;;;;;;5041969;28;20250;-74
2021/01/28 04:28:13;;;;;;;6.75;4.43;;;3.40;97.80;;;;;;5047910;28;20287;-75
2021/01/28 04:30:40;;;;;;;6.65;4.45;;;3.40;95.70;;;;;;5040816;28;20730;-75
2021/01/28 04:33:09;;;;;;;5.85;5.20;;;3.30;92.80;;;;;;5043387;28;20254;-75
2021/01/28 04:35:37;;;;;;;5.38;4.47;;;3.40;91.90;;;;;;5040435;28;20222;-74
2021/01/28 04:38:05;;;;;;;6.07;4.45;;;3.40;87.20;;;;;;5043183;28;20263;-73
2021/01/28 04:40:36;;;;;;;6.85;4.65;;;3.40;80.90;;;;;;5047871;28;20218;-74
2021/01/28 04:43:13;;;;;;;8.50;5.70;;;3.30;81.30;;;;;;5042853;28;20288;-74
2021/01/28 04:45:41;;;;;;;7.75;5.50;;;3.30;82.80;;;;;;5049121;28;20221;-74
2021/01/28 04:48:11;;;;;;;5.80;5.20;;;3.30;79.20;;;;;;5043771;28;20232;-74
2021/01/28 04:50:41;;;;;;;5.35;4.82;;;3.30;82.70;;;;;;5040531;28;20264;-74
2021/01/28 04:53:14;;;;;;;6.55;4.78;;;3.30;80.90;;;;;;5043755;28;20207;-75
2021/01/28 04:55:45;;;;;;;8.10;4.68;;;3.20;82.90;;;;;;5048151;28;20603;-75
2021/01/28 04:58:13;;;;;;;9.40;6.40;;;3.10;87.50;;;;;;5045515;28;20273;-75
2021/01/28 05:00:40;;;;;;;10.15;4.72;;;3.10;93.50;;;;;;5040631;28;20612;-73
2021/01/28 05:03:15;;;;;;;7.97;6.05;;;3.10;95.40;;;;;;5041973;28;20249;-74
2021/01/28 05:05:42;;;;;;;7.57;6.20;;;3.20;92.50;;;;;;5044796;28;20557;-74
2021/01/28 05:08:09;;;;;;;8.73;5.65;;;3.20;84.60;;;;;;5048846;28;20282;-74
2021/01/28 05:10:43;;;;;;;6.10;4.68;;;3.10;92.10;;;;;;5049054;28;20222;-74
2021/01/28 05:13:12;;;;;;;8.35;5.80;;;3.10;92.00;;;;;;5048892;28;20205;-74
2021/01/28 05:15:41;;;;;;;6.72;4.90;;;3.10;94.90;;;;;;5045518;28;20208;-74
2021/01/28 05:18:22;;;;;;;6.45;4.90;;;3.10;97.50;;;;;;5042356;28;20231;-74
2021/01/28 05:20:50;;;;;;;8.35;5.50;;;3.10;97.90;;;;;;5038838;28;20235;-76
2021/01/28 05:23:29;;;;;;;5.40;4.20;;;3.10;96.90;;;;;;5044007;28;20218;-78
2021/01/28 05:25:57;;;;;;;8.27;5.50;;;3.10;98.10;;;;;;5053093;28;20626;-78
2021/01/28 05:28:30;;;;;;;5.70;3.92;;;3.30;99.90;;;;;;5041003;28;20252;-76
2021/01/28 05:30:59;;;;;;;7.88;4.97;;;3.30;94.60;;;;;;5046784;28;20218;-76
2021/01/28 05:33:34;;;;;;;5.30;4.30;;;3.20;92.60;;;;;;5036670;28;20209;-76
2021/01/28 05:36:10;;;;;;;4.90;4.45;;;3.20;92.20;;;;;;5036032;28;20218;-75
2021/01/28 05:38:40;;;;;;;5.35;3.75;;;3.20;94.80;;;;;;5040664;28;20432;-75
2021/01/28 05:41:11;;;;;;;5.93;4.53;;;3.20;95.70;;;;;;5039511;28;20212;-75
2021/01/28 05:43:41;;;;;;;3.83;3.53;;;3.30;95.40;;;;;;5040671;28;20216;-75
2021/01/28 05:46:16;;;;;;;4.43;3.42;;;3.30;94.00;;;;;;5046458;28;20501;-76
2021/01/28 05:48:44;;;;;;;5.75;4.00;;;3.30;95.70;;;;;;5040311;28;20210;-76
2021/01/28 05:51:15;;;;;;;4.30;3.50;;;3.30;92.70;;;;;;5044462;28;20216;-74
2021/01/28 05:53:57;;;;;;;4.85;3.05;;;3.30;92.90;;;;;;5045123;28;20215;-75
2021/01/28 05:56:27;;;;;;;4.30;3.17;;;3.40;95.30;;;;;;5045002;28;20252;-75
2021/01/28 05:58:59;;;;;;;4.50;3.47;;;3.40;95.60;;;;;;5041541;28;20267;-75
2021/01/28 06:01:39;;;;;;;3.70;2.78;;;3.40;97.30;;;;;;5040121;28;20294;-75
2021/01/28 06:04:49;;;;;;;4.18;2.90;;;3.40;99.90;;;;;;5037225;28;20283;-74
2021/01/28 06:07:51;;;;;;;3.35;2.53;;;3.40;99.90;;;;;;4963772;28;20232;-75
2021/01/28 06:10:44;;;;;;;3.58;2.55;;;3.50;99.90;;;;;;5034920;28;20229;-75
2021/01/28 06:13:47;;;;;;;3.50;2.20;;;3.50;99.90;;;;;;5042847;28;20206;-74
2021/01/28 06:16:22;;;;;;;2.90;2.60;;;3.50;99.90;;;;;;5041987;28;20199;-74
2021/01/28 06:19:14;;;;;;;3.55;2.40;;;3.50;99.90;;;;;;5042734;28;20630;-74
2021/01/28 06:21:56;;;;;;;3.72;2.15;;;3.40;99.90;;;;;;5043220;28;20205;-74
2021/01/28 06:24:41;;;;;;;2.95;2.65;;;3.50;99.90;;;;;;5042436;28;20677;-75
2021/01/28 06:27:34;;;;;;;2.75;2.10;;;3.50;99.90;;;;;;5040994;28;20246;-75
2021/01/28 06:30:12;;;;;;;3.15;2.22;;;3.60;99.90;;;;;;5047630;28;20213;-75
2021/01/28 06:33:12;;;;;;;2.95;2.15;;;3.60;99.90;;;;;;5043679;28;20229;-76
2021/01/28 06:35:54;;;;;;;3.00;2.55;;;3.60;99.90;;;;;;5038300;28;20236;-74
2021/01/28 06:38:48;;;;;;;3.92;3.53;;;3.60;99.90;;;;;;5044079;28;20250;-76
2021/01/28 06:41:20;;;;;;;2.50;2.10;;;3.50;99.90;;;;;;5016092;28;20357;-75
2021/01/28 06:43:54;;;;;;;3.33;2.38;;;3.50;99.90;;;;;;5048418;28;20266;-75
2021/01/28 06:46:41;;;;;;;3.30;2.95;;;3.50;99.90;;;;;;5041713;28;20206;-76
2021/01/28 06:49:19;;;;;;;3.85;2.85;;;3.50;99.90;;;;;;5033258;28;20736;-75
2021/01/28 06:51:55;;;;;;;4.32;2.80;;;3.50;99.90;;;;;;5039688;28;20288;-76
2021/01/28 06:54:31;;;;;;;5.30;3.10;;;3.60;99.90;;;;;;5040301;28;20220;-75
2021/01/28 06:57:07;;;;;;;3.38;2.95;;;3.60;99.90;;;;;;5038733;28;20627;-75
2021/01/28 06:59:46;;;;;;;3.50;3.08;;;3.60;99.90;;;;;;5038486;28;20264;-75
2021/01/28 07:02:21;;;;;;;3.67;2.45;;;3.60;99.90;;;;;;5038296;28;20208;-76
2021/01/28 07:05:09;;;;;;;4.63;2.65;;;3.60;99.90;;;;;;5033738;28;20242;-74
2021/01/28 07:07:45;;;;;;;3.67;2.25;;;3.60;99.90;;;;;;5036374;28;20621;-75
2021/01/28 07:10:18;;;;;;;3.58;2.20;;;3.60;99.90;;;;;;5035442;28;20690;-75
2021/01/28 07:12:50;;;;;;;3.53;2.28;;;3.70;99.90;;;;;;5035241;28;20241;-76
2021/01/28 07:15:18;;;;;;;4.07;3.08;;;3.70;99.90;;;;;;5036444;28;20675;-75
2021/01/28 07:17:51;;;;;;;2.78;2.47;;;3.80;99.90;;;;;;5037841;28;20239;-75
2021/01/28 07:20:33;;;;;;;3.13;2.38;;;3.90;99.90;;;;;;5042444;28;20347;-75
2021/01/28 07:23:23;;;;;;;3.10;2.10;;;3.90;99.90;;;;;;5043724;28;20215;-75
2021/01/28 07:25:52;;;;;;;2.97;2.50;;;4.10;99.90;;;;;;5039485;28;20208;-75
2021/01/28 07:28:29;;;;;;;3.08;2.53;;;4.10;99.90;;;;;;5040327;28;20237;-75
2021/01/28 07:31:33;;;;;;;2.65;2.45;;;4.00;99.90;;;;;;5041114;28;20212;-74
2021/01/28 07:34:14;;;;;;;2.30;2.10;;;4.10;99.90;;;;;;5034240;28;20220;-76
2021/01/28 07:36:48;;;;;;;3.10;2.03;;;4.20;99.90;;;;;;5036746;28;20740;-75
2021/01/28 07:39:39;;;;;;;3.85;2.20;;;4.10;99.90;;;;;;5038206;28;20213;-75
2021/01/28 07:42:12;;;;;;;1.98;1.70;;;4.00;99.90;;;;;;5040299;28;20213;-74
2021/01/28 07:44:50;;;;;;;4.35;2.80;;;4.00;99.90;;;;;;5043869;28;20212;-73
2021/01/28 07:47:49;;;;;;;2.53;2.08;;;4.00;99.90;;;;;;5044922;28;20231;-75
2021/01/28 07:50:31;;;;;;;3.28;2.50;;;3.90;99.90;;;;;;5037771;28;20216;-75
2021/01/28 07:53:42;;;;;;;2.55;2.20;;;3.90;99.90;;;;;;5043675;28;20220;-76
2021/01/28 07:56:43;;;;;;;2.00;1.85;;;3.90;99.90;;;;;;5032104;28;20222;-75
2021/01/28 07:59:14;;;;;;;2.20;2.00;;;3.80;99.90;;;;;;5039716;28;20879;-74
2021/01/28 08:01:46;;;;;;;2.05;1.75;;;3.80;99.90;;;;;;5029941;28;20209;-74
2021/01/28 08:04:23;;;;;;;3.47;1.80;;;3.70;99.90;;;;;;5029980;28;20230;-75
2021/01/28 08:06:51;;;;;;;2.85;2.30;;;3.80;99.90;;;;;;5025572;28;21018;-76
2021/01/28 08:09:19;;;;;;;2.22;2.03;;;3.80;99.90;;;;;;5027644;28;20223;-75
2021/01/28 08:11:49;;;;;;;1.92;1.75;;;3.90;99.90;;;;;;5027626;28;20256;-75
2021/01/28 08:14:20;;;;;;;2.35;1.73;;;3.80;99.90;;;;;;5030470;28;20230;-75
2021/01/28 08:16:51;;;;;;;4.10;1.90;;;3.90;99.90;;;;;;5027706;28;20232;-76
2021/01/28 08:19:21;;;;;;;2.65;2.08;;;3.90;99.90;;;;;;5032343;28;20228;-75
2021/01/28 08:22:01;;;;;;;2.53;2.07;;;3.90;99.90;;;;;;5035514;28;20678;-75
2021/01/28 08:24:35;;;;;;;1.65;1.45;;;4.00;99.90;;;;;;5040347;28;20476;-75
2021/01/28 08:27:11;;;;;;;2.78;1.88;;;3.90;99.90;;;;;;5038264;28;21070;-76
2021/01/28 08:29:38;;;;;;;2.40;1.98;;;3.90;99.90;;;;;;5041428;28;20214;-76
2021/01/28 08:32:18;;;;;;;1.60;1.50;;;3.90;99.90;;;;;;5039498;28;20230;-77
2021/01/28 08:34:46;;;;;;;2.55;2.15;;;4.00;99.90;;;;;;5036665;28;20223;-78
2021/01/28 08:37:15;;;;;;;1.73;1.63;;;4.00;99.90;;;;;;5034908;28;20239;-76
2021/01/28 08:39:53;;;;;;;1.92;1.58;;;4.00;99.90;;;;;;5034772;28;20214;-76
2021/01/28 08:42:22;;;;;;;1.60;1.50;;;4.00;99.90;;;;;;5036679;28;20227;-76
2021/01/28 08:45:03;;;;;;;4.32;1.58;;;4.00;99.90;;;;;;5038449;28;20218;-76
2021/01/28 08:47:31;;;;;;;2.08;1.70;;;4.10;99.90;;;;;;5041354;28;20246;-76
2021/01/28 08:50:02;;;;;;;1.70;1.38;;;4.10;99.90;;;;;;5041436;28;20252;-76
2021/01/28 08:52:30;;;;;;;2.60;1.35;;;4.30;99.90;;;;;;5034665;28;20327;-75
2021/01/28 08:54:58;;;;;;;1.50;1.40;;;4.30;99.90;;;;;;5031398;28;20398;-76
2021/01/28 08:57:27;;;;;;;1.50;1.40;;;4.40;99.90;;;;;;5033185;28;20242;-75
2021/01/28 08:59:59;;;;;;;7.38;1.65;;;4.40;99.90;;;;;;5035287;28;20744;-74
2021/01/28 09:02:31;;;;;;;1.63;1.52;;;4.40;99.90;;;;;;5034940;28;20205;-75
2021/01/28 09:05:02;;;;;;;2.08;1.88;;;4.40;99.90;;;;;;5041086;28;20675;-76
2021/01/28 09:07:45;;;;;;;2.30;1.30;;;4.40;99.90;;;;;;5038176;28;20245;-74
2021/01/28 09:10:24;;;;;;;1.73;1.33;;;4.40;99.90;;;;;;5030429;28;20236;-74
2021/01/28 09:12:51;;;;;;;2.50;1.35;;;4.40;99.90;;;;;;5030741;28;20727;-76
2021/01/28 09:15:23;;;;;;;2.03;1.30;;;4.40;99.90;;;;;;5028707;28;20252;-74
2021/01/28 09:17:51;;;;;;;1.10;1.00;;;4.40;99.90;;;;;;5031106;28;20229;-75
2021/01/28 09:20:28;;;;;;;1.30;1.10;;;4.40;99.90;;;;;;5039385;28;20695;-76
2021/01/28 09:23:06;;;;;;;2.80;1.13;;;4.40;99.90;;;;;;5036180;28;20302;-74
2021/01/28 09:25:35;;;;;;;2.15;1.10;;;4.40;99.90;;;;;;5031240;28;20244;-74
2021/01/28 09:28:04;;;;;;;1.77;1.20;;;4.50;99.90;;;;;;5032860;28;20240;-74
2021/01/28 09:30:35;;;;;;;1.20;0.90;;;4.50;99.90;;;;;;5032004;28;20242;-74
2021/01/28 09:33:31;;;;;;;2.70;0.90;;;4.40;99.90;;;;;;5031934;28;20650;-77
2021/01/28 09:36:05;;;;;;;0.90;0.90;;;4.60;99.90;;;;;;5030392;28;20311;-74
2021/01/28 09:38:33;;;;;;;1.83;0.90;;;4.70;99.90;;;;;;5034954;28;20218;-74
2021/01/28 09:41:25;;;;;;;1.13;1.03;;;4.60;99.90;;;;;;5029632;28;20307;-76
2021/01/28 09:43:52;;;;;;;1.02;1.02;;;4.70;99.90;;;;;;5033981;28;21065;-74
2021/01/28 09:46:29;;;;;;;1.10;0.90;;;4.70;99.90;;;;;;5037100;28;20244;-74
2021/01/28 09:49:01;;;;;;;1.75;1.13;;;4.70;99.90;;;;;;5034463;28;20211;-75
2021/01/28 09:51:33;;;;;;;1.42;1.33;;;4.60;99.90;;;;;;5032185;28;20217;-74
2021/01/28 09:54:09;;;;;;;1.90;1.80;;;4.70;99.90;;;;;;5033677;28;20307;-74
2021/01/28 09:56:39;;;;;;;1.27;1.20;;;4.70;99.90;;;;;;5039217;28;20238;-74
2021/01/28 09:59:06;;;;;;;1.60;1.20;;;4.70;99.90;;;;;;5030283;28;20226;-73
2021/01/28 10:01:34;;;;;;;1.20;1.10;;;4.70;99.90;;;;;;5037825;28;20293;-74
2021/01/28 10:04:01;;;;;;;1.75;1.10;;;4.70;99.90;;;;;;5032843;28;20212;-74
2021/01/28 10:06:30;;;;;;;1.20;1.10;;;4.80;99.90;;;;;;5035133;28;20243;-72
2021/01/28 10:08:57;;;;;;;1.07;1.00;;;4.80;99.90;;;;;;5033888;28;20216;-76
2021/01/28 10:11:25;;;;;;;2.00;1.40;;;4.80;99.90;;;;;;5038097;28;20464;-75
2021/01/28 10:13:53;;;;;;;1.00;0.90;;;4.80;99.90;;;;;;5037922;28;20923;-72
2021/01/28 10:16:20;;;;;;;1.20;1.10;;;4.80;99.90;;;;;;5041227;28;20488;-75
2021/01/28 10:18:49;;;;;;;2.03;1.20;;;4.80;99.90;;;;;;5036843;28;20724;-72
2021/01/28 10:21:16;;;;;;;1.23;1.00;;;4.90;99.90;;;;;;5038875;28;20757;-74
2021/01/28 10:23:43;;;;;;;1.27;1.17;;;4.90;99.90;;;;;;5032863;28;20215;-74
2021/01/28 10:26:11;;;;;;;1.20;1.07;;;5.00;99.90;;;;;;5038239;28;20689;-74
2021/01/28 10:28:38;;;;;;;1.10;0.90;;;5.00;99.90;;;;;;5028477;28;20511;-73
2021/01/28 10:31:07;;;;;;;1.38;1.08;;;5.00;99.90;;;;;;5030768;28;20304;-72
2021/01/28 10:33:37;;;;;;;1.40;1.00;;;5.10;99.90;;;;;;5032883;28;20228;-73
2021/01/28 10:36:05;;;;;;;1.53;1.13;;;5.20;99.90;;;;;;5028902;28;20229;-73
2021/01/28 10:38:33;;;;;;;1.10;1.00;;;5.20;99.90;;;;;;5031498;28;21234;-73
2021/01/28 10:41:01;;;;;;;0.80;0.80;;;5.20;99.90;;;;;;5030138;28;20472;-75
2021/01/28 10:43:28;;;;;;;0.80;0.80;;;5.20;99.90;;;;;;5031669;28;20466;-73
2021/01/28 10:45:55;;;;;;;0.80;0.80;;;5.20;99.90;;;;;;5035967;28;20479;-73
2021/01/28 10:48:23;;;;;;;1.00;0.90;;;5.30;99.90;;;;;;5026716;28;20605;-73
2021/01/28 10:50:51;;;;;;;1.03;0.93;;;5.30;99.90;;;;;;5030823;28;20457;-73
2021/01/28 10:53:18;;;;;;;0.87;0.87;;;5.20;99.90;;;;;;5031990;28;20483;-73
2021/01/28 10:55:45;;;;;;;1.67;0.90;;;5.30;99.90;;;;;;5032937;28;20465;-73
2021/01/28 10:58:13;;;;;;;1.10;1.00;;;5.30;99.90;;;;;;5027909;28;20232;-73
2021/01/28 11:00:40;;;;;;;0.90;0.90;;;5.30;99.90;;;;;;5031331;28;20475;-73
2021/01/28 11:03:07;;;;;;;1.33;0.90;;;5.30;99.90;;;;;;5030696;28;20480;-74
2021/01/28 11:05:37;;;;;;;2.10;1.20;;;5.40;99.90;;;;;;5024634;28;20565;-74
2021/01/28 11:08:06;;;;;;;1.17;1.07;;;5.40;99.90;;;;;;5030290;28;20864;-72
2021/01/28 11:10:34;;;;;;;1.33;1.00;;;5.40;99.90;;;;;;5045656;28;20563;-73
2021/01/28 11:13:01;;;;;;;1.80;1.00;;;5.50;99.90;;;;;;5027018;28;21342;-73
2021/01/28 11:15:32;;;;;;;1.17;1.07;;;5.50;99.90;;;;;;5030010;28;20994;-75
2021/01/28 11:17:59;;;;;;;0.90;0.90;;;5.40;99.90;;;;;;5028151;28;21126;-73
2021/01/28 11:20:27;;;;;;;1.20;1.10;;;5.50;99.90;;;;;;5030161;28;20473;-75
2021/01/28 11:22:55;;;;;;;1.48;1.10;;;5.50;99.90;;;;;;5031818;28;20872;-74
2021/01/28 11:25:24;;;;;;;1.30;1.20;;;5.40;99.90;;;;;;5034157;28;20350;-73
2021/01/28 11:27:52;;;;;;;1.20;1.10;;;5.40;99.90;;;;;;5028376;28;20509;-73
2021/01/28 11:30:22;;;;;;;2.17;1.40;;;5.40;99.90;;;;;;5032088;28;20473;-73
2021/01/28 11:32:50;;;;;;;1.88;1.20;;;5.40;99.90;;;;;;5026771;28;20584;-72
2021/01/28 11:35:20;;;;;;;2.45;1.20;;;5.50;99.90;;;;;;5029292;28;20215;-73
2021/01/28 11:37:49;;;;;;;1.97;1.60;;;5.60;99.90;;;;;;5029113;28;20738;-72
2021/01/28 11:40:20;;;;;;;1.35;1.13;;;5.70;99.90;;;;;;5030228;28;20472;-73
2021/01/28 11:42:47;;;;;;;1.87;1.20;;;5.90;99.90;;;;;;5029138;28;20215;-73
2021/01/28 11:45:16;;;;;;;1.20;1.10;;;6.40;99.90;;;;;;5029367;28;20528;-72
2021/01/28 11:47:44;;;;;;;1.30;1.20;;;7.00;99.90;;;;;;5033904;28;20492;-74
2021/01/28 11:50:13;;;;;;;0.80;0.80;;;7.50;94.60;;;;;;5027267;28;20470;-74
2021/01/28 11:52:40;;;;;;;1.23;1.00;;;7.50;60.10;;;;;;5035622;28;20834;-72
2021/01/28 11:55:14;;;;;;;3.13;1.40;;;7.40;88.60;;;;;;5036603;28;20475;-73
2021/01/28 11:57:42;;;;;;;1.23;1.13;;;7.20;92.60;;;;;;5034886;28;20486;-73
2021/01/28 12:00:13;;;;;;;1.30;1.20;;;7.00;99.90;;;;;;5033842;28;20471;-72
2021/01/28 12:02:41;;;;;;;1.10;1.00;;;6.90;99.90;;;;;;5034810;28;20464;-73
2021/01/28 12:05:10;;;;;;;0.97;0.80;;;6.80;99.90;;;;;;5033994;28;21066;-72
2021/01/28 12:07:38;;;;;;;1.27;1.10;;;7.10;99.90;;;;;;5033819;28;20482;-73
2021/01/28 12:10:08;;;;;;;0.70;0.70;;;9.40;99.90;;;;;;5034348;28;20457;-73
2021/01/28 12:12:37;;;;;;;1.70;0.90;;;10.10;1.00;;;;;;5034010;28;20879;-73
2021/01/28 12:15:07;;;;;;;1.40;0.77;;;9.30;1.00;;;;;;5035797;28;20198;-73
2021/01/28 12:17:34;;;;;;;0.70;0.70;;;8.60;1.00;;;;;;5030665;28;20496;-72
2021/01/28 12:20:01;;;;;;;1.90;1.00;;;8.30;70.90;;;;;;5036872;28;20450;-74
2021/01/28 12:22:29;;;;;;;1.30;1.00;;;8.40;90.70;;;;;;5037437;28;20963;-74
2021/01/28 12:24:56;;;;;;;1.37;0.83;;;9.00;55.00;;;;;;5036619;28;20464;-73
2021/01/28 12:27:23;;;;;;;1.20;0.80;;;9.00;33.10;;;;;;5032720;28;20539;-74
2021/01/28 12:29:51;;;;;;;1.13;1.03;;;8.90;68.00;;;;;;5034601;28;20452;-73
2021/01/28 12:32:18;;;;;;;0.80;0.73;;;8.90;74.60;;;;;;5044785;28;20492;-74
2021/01/28 12:34:46;;;;;;;0.83;0.83;;;8.80;93.20;;;;;;5041502;28;20466;-74
2021/01/28 12:37:14;;;;;;;1.07;0.87;;;8.80;82.50;;;;;;5033793;28;20870;-74
2021/01/28 12:39:42;;;;;;;1.13;0.77;;;8.90;87.50;;;;;;5035548;28;20557;-75
2021/01/28 12:42:12;;;;;;;0.80;0.80;;;8.90;74.70;;;;;;5035481;28;20460;-73
2021/01/28 12:44:40;;;;;;;1.00;0.97;;;8.70;99.90;;;;;;5041469;28;21041;-72
2021/01/28 12:47:08;;;;;;;0.90;0.60;;;8.80;99.90;;;;;;5045499;28;20497;-73
2021/01/28 12:49:37;;;;;;;0.70;0.70;;;8.80;99.90;;;;;;5040287;28;20475;-72
2021/01/28 12:52:05;;;;;;;0.60;0.60;;;9.00;99.90;;;;;;5043620;28;20484;-73
2021/01/28 12:54:32;;;;;;;4.00;0.60;;;9.20;99.90;;;;;;5039886;28;20962;-72
2021/01/28 12:56:59;;;;;;;2.10;0.70;;;9.60;91.70;;;;;;5041349;28;20562;-73
2021/01/28 12:59:27;;;;;;;0.83;0.60;;;10.00;76.80;;;;;;5042025;28;21061;-73
2021/01/28 13:01:54;;;;;;;0.60;0.60;;;10.10;17.90;;;;;;5032366;28;20520;-73
2021/01/28 13:04:22;;;;;;;0.50;0.50;;;9.60;49.70;;;;;;5040660;28;20518;-73
2021/01/28 13:06:50;;;;;;;0.50;0.50;;;9.40;99.50;;;;;;5031800;28;20483;-72
2021/01/28 13:09:18;;;;;;;1.00;0.90;;;9.70;73.20;;;;;;5036305;28;20522;-73
2021/01/28 13:11:45;;;;;;;0.50;0.50;;;9.60;64.10;;;;;;5035209;28;20455;-72
2021/01/28 13:14:13;;;;;;;0.60;0.60;;;9.50;81.80;;;;;;5025640;28;20997;-73
2021/01/28 13:16:40;;;;;;;0.50;0.50;;;9.30;99.50;;;;;;5044801;28;20491;-72
2021/01/28 13:19:07;;;;;;;0.80;0.60;;;9.40;97.80;;;;;;5031009;28;20495;-72